createdAt,value
2022-10-23T00:00:49.306Z,61.84
2022-10-23T00:03:15.858Z,61.65
2022-10-23T00:05:47.280Z,61.38
2022-10-23T00:08:15.934Z,61.66
2022-10-23T00:10:43.305Z,62.95
2022-10-23T00:13:10.687Z,62.77
2022-10-23T00:15:38.555Z,62.33
2022-10-23T00:18:07.580Z,62.22
2022-10-23T00:20:34.428Z,62.52
2022-10-23T00:23:01.016Z,63.20
2022-10-23T00:25:28.597Z,63.19
2022-10-23T00:27:55.377Z,62.06
2022-10-23T00:30:24.083Z,62.11
2022-10-23T00:32:51.588Z,59.48
2022-10-23T00:35:22.010Z,60.20
2022-10-23T00:37:49.041Z,60.98
2022-10-23T00:40:19.477Z,59.97
2022-10-23T00:42:49.877Z,59.01
2022-10-23T00:45:17.129Z,58.30
2022-10-23T00:47:44.525Z,58.36
2022-10-23T00:50:12.757Z,58.17
2022-10-23T00:52:40.481Z,58.92
2022-10-23T00:55:08.664Z,58.14
2022-10-23T00:57:36.186Z,58.63
2022-10-23T01:00:03.467Z,58.40
2022-10-23T01:02:29.935Z,59.07
2022-10-23T01:04:56.723Z,59.12
2022-10-23T01:07:23.729Z,58.73
2022-10-23T01:09:50.689Z,59.06
2022-10-23T01:12:19.348Z,59.51
2022-10-23T01:14:47.341Z,60.75
2022-10-23T01:17:17.022Z,58.84
2022-10-23T01:19:44.387Z,57.74
2022-10-23T01:22:11.420Z,57.05
2022-10-23T01:24:38.360Z,57.01
2022-10-23T01:27:06.056Z,57.90
2022-10-23T01:29:32.606Z,58.83
2022-10-23T01:31:59.294Z,59.58
2022-10-23T01:34:26.706Z,59.49
2022-10-23T01:36:54.058Z,60.50
2022-10-23T01:39:21.479Z,62.01
2022-10-23T01:41:48.128Z,63.10
2022-10-23T01:44:14.633Z,63.70
2022-10-23T01:46:43.138Z,62.52
2022-10-23T01:49:14.774Z,61.21
2022-10-23T01:51:43.147Z,61.26
2022-10-23T01:54:10.076Z,59.08
2022-10-23T01:56:36.823Z,58.66
2022-10-23T01:59:05.317Z,58.46
2022-10-23T02:01:32.307Z,60.80
2022-10-23T02:06:26.129Z,59.29
2022-10-23T02:08:53.123Z,59.45
2022-10-23T02:11:19.950Z,60.54
2022-10-23T02:13:46.569Z,59.20
2022-10-23T02:16:13.459Z,59.67
2022-10-23T02:18:42.945Z,62.96
2022-10-23T02:21:12.899Z,61.79
2022-10-23T02:23:39.631Z,61.06
2022-10-23T02:26:08.641Z,59.40
2022-10-23T02:28:38.519Z,60.67
2022-10-23T02:31:07.007Z,61.15
2022-10-23T02:33:35.774Z,59.55
2022-10-23T02:36:12.876Z,58.80
2022-10-23T02:38:40.446Z,60.49
2022-10-23T02:41:11.122Z,60.05
2022-10-23T02:43:38.070Z,59.12
2022-10-23T02:46:06.836Z,59.10
2022-10-23T02:48:35.676Z,60.45
2022-10-23T02:51:02.628Z,61.69
2022-10-23T02:53:29.572Z,60.17
2022-10-23T02:55:57.202Z,59.51
2022-10-23T02:58:24.192Z,60.03
2022-10-23T03:00:51.157Z,59.60
2022-10-23T03:03:18.039Z,58.75
2022-10-23T03:05:45.835Z,58.32
2022-10-23T03:08:12.834Z,58.02
2022-10-23T03:10:39.891Z,59.44
2022-10-23T03:13:07.216Z,59.32
2022-10-23T03:15:33.977Z,60.33
2022-10-23T03:18:05.235Z,61.00
2022-10-23T03:20:33.501Z,61.21
2022-10-23T03:23:03.727Z,62.05
2022-10-23T03:25:33.506Z,61.60
2022-10-23T03:28:03.244Z,61.53
2022-10-23T03:30:30.063Z,60.78
2022-10-23T03:32:57.713Z,60.11
2022-10-23T03:35:24.330Z,59.53
2022-10-23T03:37:51.828Z,59.33
2022-10-23T03:40:21.323Z,57.79
2022-10-23T03:42:48.696Z,60.93
2022-10-23T03:45:18.995Z,60.08
2022-10-23T03:47:45.954Z,59.36
2022-10-23T03:50:17.299Z,58.11
2022-10-23T03:52:44.254Z,60.78
2022-10-23T03:55:11.071Z,62.17
2022-10-23T03:57:38.342Z,63.09
2022-10-23T04:00:05.167Z,63.55
2022-10-23T04:02:32.045Z,62.75
2022-10-23T04:05:03.241Z,61.81
2022-10-23T04:07:29.996Z,61.01
2022-10-23T04:09:58.677Z,60.71
2022-10-23T04:12:35.876Z,60.05
2022-10-23T04:15:03.323Z,60.24
2022-10-23T04:17:36.220Z,60.05
2022-10-23T04:20:02.879Z,60.35
2022-10-23T04:22:30.365Z,60.86
2022-10-23T04:24:57.631Z,62.16
2022-10-23T04:27:24.334Z,61.44
2022-10-23T04:29:54.252Z,59.75
2022-10-23T04:32:23.657Z,59.54
2022-10-23T04:34:50.377Z,59.92
2022-10-23T04:37:18.129Z,60.42
2022-10-23T04:39:45.100Z,58.37
2022-10-23T04:42:12.027Z,59.75
2022-10-23T04:44:39.004Z,59.81
2022-10-23T04:47:05.794Z,58.04
2022-10-23T04:49:32.740Z,58.36
2022-10-23T04:51:59.613Z,59.28
2022-10-23T04:54:26.527Z,61.79
2022-10-23T04:56:53.380Z,60.78
2022-10-23T04:59:20.563Z,58.99
2022-10-23T05:01:48.255Z,57.45
2022-10-23T05:04:15.549Z,57.20
2022-10-23T05:06:42.562Z,57.53
2022-10-23T05:09:09.221Z,59.37
2022-10-23T05:11:36.550Z,61.09
2022-10-23T05:14:03.422Z,60.23
2022-10-23T05:16:32.271Z,60.30
2022-10-23T05:19:03.071Z,60.03
2022-10-23T05:21:30.073Z,59.98
2022-10-23T05:23:56.804Z,60.17
2022-10-23T05:26:24.626Z,59.23
2022-10-23T05:28:51.321Z,59.62
2022-10-23T05:31:18.334Z,59.20
2022-10-23T05:33:46.052Z,58.73
2022-10-23T05:36:12.583Z,59.08
2022-10-23T05:38:40.084Z,59.44
2022-10-23T05:41:07.464Z,59.43
2022-10-23T05:43:34.385Z,60.12
2022-10-23T05:46:02.173Z,59.88
2022-10-23T05:48:34.733Z,59.47
2022-10-23T05:51:01.731Z,60.15
2022-10-23T05:53:30.172Z,59.86
2022-10-23T05:55:56.901Z,59.34
2022-10-23T05:58:24.286Z,60.15
2022-10-23T06:00:58.392Z,61.86
2022-10-23T06:03:25.989Z,62.00
2022-10-23T06:05:53.591Z,61.27
2022-10-23T06:08:20.749Z,63.81
2022-10-23T06:10:48.574Z,63.48
2022-10-23T06:13:15.248Z,61.64
2022-10-23T06:15:42.395Z,60.07
2022-10-23T06:18:09.474Z,59.10
2022-10-23T06:20:36.433Z,58.28
2022-10-23T06:23:03.368Z,58.51
2022-10-23T06:25:30.933Z,59.65
2022-10-23T06:28:04.461Z,59.63
2022-10-23T06:30:32.276Z,62.02
2022-10-23T06:33:03.311Z,61.76
2022-10-23T06:35:34.713Z,59.63
2022-10-23T06:38:01.733Z,60.01
2022-10-23T06:40:29.358Z,61.69
2022-10-23T06:42:58.080Z,64.94
2022-10-23T06:45:24.959Z,64.00
2022-10-23T06:47:52.026Z,64.20
2022-10-23T06:50:19.185Z,63.04
2022-10-23T06:52:47.664Z,64.77
2022-10-23T06:55:15.100Z,61.96
2022-10-23T06:57:42.925Z,61.44
2022-10-23T07:00:09.951Z,59.65
2022-10-23T07:02:37.199Z,58.64
2022-10-23T07:05:07.641Z,57.58
2022-10-23T07:07:36.498Z,56.73
2022-10-23T07:10:03.942Z,56.08
2022-10-23T07:12:30.806Z,57.59
2022-10-23T07:14:57.734Z,58.36
2022-10-23T07:17:26.569Z,56.74
2022-10-23T07:19:54.310Z,55.58
2022-10-23T07:22:21.127Z,57.38
2022-10-23T07:24:48.147Z,57.63
2022-10-23T07:27:14.907Z,56.89
2022-10-23T07:29:43.421Z,57.10
2022-10-23T07:32:10.166Z,57.27
2022-10-23T07:34:44.547Z,57.25
2022-10-23T07:37:12.183Z,57.52
2022-10-23T07:39:39.170Z,59.41
2022-10-23T07:42:08.042Z,59.73
2022-10-23T07:44:35.126Z,60.85
2022-10-23T07:47:02.819Z,59.96
2022-10-23T07:49:32.881Z,58.39
2022-10-23T07:51:59.915Z,57.96
2022-10-23T07:54:26.687Z,58.39
2022-10-23T07:56:53.802Z,57.63
2022-10-23T07:59:21.067Z,57.39
2022-10-23T08:01:49.545Z,56.96
2022-10-23T08:04:20.116Z,57.24
2022-10-23T08:06:47.054Z,57.89
2022-10-23T08:09:13.897Z,57.25
2022-10-23T08:11:40.924Z,58.08
2022-10-23T08:14:07.937Z,57.96
2022-10-23T08:16:34.705Z,57.29
2022-10-23T08:19:01.373Z,56.86
2022-10-23T08:21:27.929Z,56.95
2022-10-23T08:23:54.762Z,57.07
2022-10-23T08:26:21.559Z,56.77
2022-10-23T08:28:49.963Z,57.23
2022-10-23T08:31:17.202Z,56.63
2022-10-23T08:33:44.715Z,56.47
2022-10-23T08:36:13.616Z,56.44
2022-10-23T08:38:40.559Z,56.44
2022-10-23T08:41:07.855Z,55.47
2022-10-23T08:43:34.705Z,55.52
2022-10-23T08:46:03.342Z,55.90
2022-10-23T08:48:32.648Z,56.29
2022-10-23T08:51:00.135Z,56.08
2022-10-23T08:53:27.166Z,55.43
2022-10-23T08:55:54.160Z,54.98
2022-10-23T08:58:22.017Z,54.32
2022-10-23T09:00:49.056Z,54.65
2022-10-23T09:03:16.045Z,54.47
2022-10-23T09:05:42.964Z,54.25
2022-10-23T09:08:10.199Z,53.60
2022-10-23T09:10:37.730Z,53.13
2022-10-23T09:13:07.556Z,53.02
2022-10-23T09:15:35.146Z,53.34
2022-10-23T09:18:02.271Z,52.75
2022-10-23T09:20:28.860Z,53.01
2022-10-23T09:22:56.031Z,52.15
2022-10-23T09:25:24.179Z,52.52
2022-10-23T09:27:53.287Z,52.43
2022-10-23T09:30:22.871Z,53.15
2022-10-23T09:32:49.737Z,54.29
2022-10-23T09:35:18.366Z,54.72
2022-10-23T09:37:45.566Z,53.98
2022-10-23T09:40:12.654Z,53.42
2022-10-23T09:42:39.476Z,52.59
2022-10-23T09:45:10.367Z,54.03
2022-10-23T09:47:38.109Z,53.08
2022-10-23T09:50:05.132Z,52.20
2022-10-23T09:52:33.129Z,52.64
2022-10-23T09:55:02.001Z,53.26
2022-10-23T09:57:28.996Z,53.16
2022-10-23T09:59:56.064Z,53.44
2022-10-23T10:02:23.698Z,53.09
2022-10-23T10:04:52.214Z,54.84
2022-10-23T10:07:20.335Z,54.95
2022-10-23T10:09:51.662Z,53.60
2022-10-23T10:12:19.142Z,52.63
2022-10-23T10:14:45.772Z,52.47
2022-10-23T10:17:13.364Z,52.18
2022-10-23T10:19:41.910Z,52.19
2022-10-23T10:22:10.880Z,52.88
2022-10-23T10:24:38.311Z,51.69
2022-10-23T10:27:04.901Z,51.47
2022-10-23T10:29:31.760Z,51.21
2022-10-23T10:31:59.414Z,51.88
2022-10-23T10:34:26.252Z,51.48
2022-10-23T10:36:53.173Z,52.24
2022-10-23T10:39:25.468Z,53.02
2022-10-23T10:41:56.039Z,51.95
2022-10-23T10:56:30.412Z,52.17
2022-10-23T10:58:57.392Z,52.08
2022-10-23T11:01:25.078Z,52.70
2022-10-23T11:03:56.945Z,52.61
2022-10-23T11:06:23.552Z,52.41
2022-10-23T11:08:58.068Z,51.77
2022-10-23T11:11:32.707Z,50.61
2022-10-23T11:13:59.494Z,51.43
2022-10-23T11:16:26.337Z,52.04
2022-10-23T11:18:53.990Z,52.03
2022-10-23T11:21:21.245Z,50.97
2022-10-23T11:23:48.383Z,53.95
2022-10-23T11:26:19.686Z,52.77
2022-10-23T11:28:47.036Z,51.72
2022-10-23T11:31:18.611Z,52.05
2022-10-23T11:33:47.179Z,52.20
2022-10-23T11:38:56.032Z,51.38
2022-10-23T11:41:26.837Z,51.52
2022-10-23T11:43:55.993Z,52.26
2022-10-23T11:46:23.041Z,52.44
2022-10-23T11:48:50.595Z,51.73
2022-10-23T11:51:18.165Z,52.99
2022-10-23T11:53:45.038Z,52.74
2022-10-23T11:56:15.390Z,52.82
2022-10-23T11:58:42.903Z,55.51
2022-10-23T12:01:12.184Z,54.97
2022-10-23T12:03:38.898Z,54.65
2022-10-23T12:06:06.807Z,56.60
2022-10-23T12:08:33.479Z,56.74
2022-10-23T12:11:02.814Z,55.45
2022-10-23T12:13:31.362Z,58.53
2022-10-23T12:16:00.748Z,57.73
2022-10-23T12:18:28.945Z,55.70
2022-10-23T12:20:57.097Z,54.89
2022-10-23T12:23:26.046Z,57.28
2022-10-23T12:25:53.925Z,56.52
2022-10-23T12:28:21.751Z,54.93
2022-10-23T12:30:49.242Z,56.38
2022-10-23T12:33:17.319Z,55.47
2022-10-23T12:35:48.935Z,56.22
2022-10-23T12:38:16.086Z,53.99
2022-10-23T12:43:26.342Z,54.27
2022-10-23T12:45:53.388Z,54.67
2022-10-23T12:48:20.140Z,54.62
2022-10-23T12:53:57.161Z,57.19
2022-10-23T12:56:29.523Z,55.88
2022-10-23T12:59:00.649Z,55.11
2022-10-23T13:01:27.914Z,55.23
2022-10-23T13:03:57.727Z,55.02
2022-10-23T13:06:25.355Z,55.18
2022-10-23T13:08:53.255Z,56.45
2022-10-23T13:11:20.780Z,55.28
2022-10-23T13:13:50.834Z,55.70
2022-10-23T13:16:20.936Z,54.94
2022-10-23T13:18:48.180Z,54.65
2022-10-23T13:21:15.394Z,55.31
2022-10-23T13:23:53.494Z,54.58
2022-10-23T13:26:24.620Z,55.16
2022-10-23T13:28:55.032Z,54.73
2022-10-23T13:31:32.707Z,54.79
2022-10-23T13:34:01.538Z,54.57
2022-10-23T13:39:13.374Z,58.43
2022-10-23T13:41:40.189Z,58.05
2022-10-23T13:44:07.612Z,57.55
2022-10-23T13:46:35.698Z,57.97
2022-10-23T13:49:08.318Z,56.76
2022-10-23T13:51:38.808Z,56.73
2022-10-23T13:54:10.295Z,56.34
2022-10-23T13:56:38.028Z,56.01
2022-10-23T13:59:07.606Z,56.31
2022-10-23T14:01:39.227Z,55.68
2022-10-23T14:04:08.287Z,55.35
2022-10-23T14:09:15.888Z,56.40
2022-10-23T14:11:50.019Z,56.17
2022-10-23T14:14:17.558Z,55.98
2022-10-23T14:22:04.239Z,55.23
2022-10-23T14:24:31.254Z,55.07
2022-10-23T14:27:00.175Z,54.72
2022-10-23T14:29:28.628Z,56.18
2022-10-23T14:31:56.302Z,55.78
2022-10-23T14:34:23.794Z,55.36
2022-10-23T14:37:03.726Z,55.41
2022-10-23T14:39:40.359Z,56.00
2022-10-23T14:42:07.593Z,56.35
2022-10-23T14:44:34.449Z,56.25
2022-10-23T14:47:03.989Z,57.51
2022-10-23T14:49:41.193Z,57.71
2022-10-23T14:54:48.724Z,57.01
2022-10-23T14:57:42.688Z,57.09
2022-10-23T15:00:16.703Z,60.04
2022-10-23T15:02:51.279Z,59.02
2022-10-23T15:08:07.853Z,57.19
2022-10-23T15:10:37.233Z,56.82
2022-10-23T15:15:50.564Z,60.54
2022-10-23T15:18:17.854Z,59.97
2022-10-23T15:24:03.337Z,58.90
2022-10-23T15:26:30.804Z,59.09
2022-10-23T15:28:58.488Z,59.14
2022-10-23T15:31:25.621Z,57.61
2022-10-23T15:33:52.803Z,57.65
2022-10-23T15:36:20.391Z,57.64
2022-10-23T15:38:50.526Z,56.63
2022-10-23T15:44:06.186Z,56.31
2022-10-23T15:46:33.674Z,58.45
2022-10-23T15:49:03.570Z,59.28
2022-10-23T15:51:30.650Z,59.10
2022-10-23T15:54:02.116Z,58.97
2022-10-23T15:56:35.038Z,60.80
2022-10-23T15:59:03.797Z,61.41
2022-10-23T16:01:35.474Z,61.90
2022-10-23T16:04:03.024Z,60.11
2022-10-23T16:06:33.471Z,59.11
2022-10-23T16:11:40.728Z,54.76
2022-10-23T16:14:09.927Z,55.37
2022-10-23T16:16:37.391Z,57.66
2022-10-23T16:19:04.153Z,57.90
2022-10-23T16:21:31.680Z,57.83
2022-10-23T16:24:01.976Z,57.75
2022-10-23T16:26:34.097Z,59.23
2022-10-23T16:29:01.010Z,60.01
2022-10-23T16:31:28.770Z,61.31
2022-10-23T16:36:29.335Z,58.26
2022-10-23T16:38:58.234Z,58.21
2022-10-23T16:41:30.001Z,59.26
2022-10-23T16:44:04.505Z,56.70
2022-10-23T16:46:33.458Z,56.83
2022-10-23T16:49:02.560Z,55.08
2022-10-23T16:51:33.705Z,55.93
2022-10-23T16:54:01.500Z,55.58
2022-10-23T16:56:28.656Z,54.33
2022-10-23T17:01:27.361Z,55.20
2022-10-23T17:03:54.948Z,55.42
2022-10-23T17:06:25.444Z,53.18
2022-10-23T17:09:04.761Z,52.52
2022-10-23T17:11:31.556Z,53.31
2022-10-23T17:13:59.406Z,52.01
2022-10-23T17:16:29.713Z,52.27
2022-10-23T17:18:57.626Z,53.08
2022-10-23T17:21:24.572Z,53.48
2022-10-23T17:23:52.521Z,56.04
2022-10-23T17:26:20.101Z,56.25
2022-10-23T17:28:48.934Z,58.52
2022-10-23T17:31:18.691Z,59.44
2022-10-23T17:33:46.084Z,59.47
2022-10-23T17:39:36.500Z,57.91
2022-10-23T17:42:05.897Z,59.25
2022-10-23T17:44:32.944Z,61.86
2022-10-23T17:47:01.586Z,63.71
2022-10-23T17:49:28.829Z,63.50
2022-10-23T17:51:57.829Z,64.67
2022-10-23T17:54:24.829Z,64.25
2022-10-23T17:56:51.723Z,64.58
2022-10-23T17:59:19.350Z,62.58
2022-10-23T18:01:46.247Z,63.26
2022-10-23T18:04:15.877Z,63.16
2022-10-23T18:06:53.518Z,62.07
2022-10-23T18:09:22.276Z,61.74
2022-10-23T18:11:49.524Z,60.95
2022-10-23T18:14:16.388Z,60.91
2022-10-23T18:16:43.269Z,59.83
2022-10-23T18:19:10.617Z,59.39
2022-10-23T18:21:41.215Z,59.30
2022-10-23T18:24:10.443Z,57.79
2022-10-23T18:26:38.204Z,57.95
2022-10-23T18:29:05.986Z,57.92
2022-10-23T18:31:34.808Z,58.13
2022-10-23T18:34:02.607Z,57.39
2022-10-23T18:36:31.832Z,57.38
2022-10-23T18:41:40.135Z,59.66
2022-10-23T18:44:11.478Z,63.79
2022-10-23T18:46:39.047Z,61.95
2022-10-23T18:49:06.624Z,61.67
2022-10-23T18:51:35.328Z,63.19
2022-10-23T18:54:02.283Z,63.63
2022-10-23T18:56:29.236Z,64.13
2022-10-23T18:58:56.347Z,62.03
2022-10-23T19:01:25.102Z,63.19
2022-10-23T19:03:52.978Z,62.71
2022-10-23T19:06:19.956Z,65.43
2022-10-23T19:08:46.789Z,65.55
2022-10-23T19:11:14.176Z,69.65
2022-10-23T19:13:41.082Z,72.54
2022-10-23T19:16:07.888Z,76.12
2022-10-23T19:18:38.293Z,73.83
2022-10-23T19:21:05.067Z,74.43
2022-10-23T19:23:31.977Z,76.97
2022-10-23T19:26:07.693Z,80.55
2022-10-23T19:28:37.679Z,78.26
2022-10-23T19:31:05.248Z,76.22
2022-10-23T19:33:32.215Z,74.24
2022-10-23T19:36:05.046Z,73.04
2022-10-23T19:38:42.885Z,74.48
2022-10-23T19:41:09.812Z,74.08
2022-10-23T19:43:36.883Z,75.22
2022-10-23T19:46:06.307Z,75.75
2022-10-23T19:48:37.917Z,75.36
2022-10-23T19:51:05.596Z,74.73
2022-10-23T19:53:32.564Z,75.76
2022-10-23T19:55:59.385Z,76.45
2022-10-23T19:58:26.924Z,74.18
2022-10-23T20:00:53.818Z,74.20
2022-10-23T20:03:21.389Z,71.15
2022-10-23T20:05:50.132Z,69.36
2022-10-23T20:08:17.236Z,69.02
2022-10-23T20:10:44.074Z,68.08
2022-10-23T20:13:20.139Z,67.31
2022-10-23T20:15:47.312Z,67.77
2022-10-23T20:18:14.876Z,69.54
2022-10-23T20:20:41.967Z,68.67
2022-10-23T20:23:09.079Z,68.22
2022-10-23T20:25:35.977Z,70.04
2022-10-23T20:28:02.670Z,69.82
2022-10-23T20:30:30.271Z,72.06
2022-10-23T20:32:59.197Z,72.11
2022-10-23T20:35:26.883Z,72.02
2022-10-23T20:37:53.759Z,71.22
2022-10-23T20:40:20.653Z,71.76
2022-10-23T20:42:47.721Z,72.29
2022-10-23T20:45:14.652Z,71.65
2022-10-23T20:47:45.320Z,69.77
2022-10-23T20:50:14.693Z,66.64
2022-10-23T20:52:41.652Z,65.17
2022-10-23T20:55:08.472Z,64.88
2022-10-23T20:57:36.091Z,62.21
2022-10-23T21:00:03.918Z,64.23
2022-10-23T21:02:35.392Z,64.37
2022-10-23T21:05:02.922Z,63.85
2022-10-23T21:07:30.842Z,65.28
2022-10-23T21:09:59.099Z,65.76
2022-10-23T21:12:25.890Z,66.30
2022-10-23T21:14:53.188Z,67.34
2022-10-23T21:17:27.646Z,68.46
2022-10-23T21:19:55.096Z,68.99
2022-10-23T21:22:22.794Z,68.37
2022-10-23T21:24:49.862Z,67.59
2022-10-23T21:27:16.723Z,69.83
2022-10-23T21:29:43.967Z,68.83
2022-10-23T21:32:22.210Z,68.11
2022-10-23T21:34:49.263Z,69.13
2022-10-23T21:37:16.481Z,69.33
2022-10-23T21:39:45.711Z,67.32
2022-10-23T21:42:15.562Z,67.78
2022-10-23T21:44:44.076Z,68.99
2022-10-23T21:47:12.811Z,67.86
2022-10-23T21:49:39.867Z,67.15
2022-10-23T21:52:06.932Z,68.91
2022-10-23T21:54:33.670Z,67.56
2022-10-23T21:57:01.209Z,64.10
2022-10-23T21:59:33.147Z,63.28
2022-10-23T22:02:02.876Z,59.82
2022-10-23T22:04:30.520Z,59.24
2022-10-23T22:06:57.191Z,59.69
2022-10-23T22:09:25.341Z,59.59
2022-10-23T22:11:52.224Z,61.48
2022-10-23T22:14:21.502Z,60.98
2022-10-23T22:16:48.430Z,62.57
2022-10-23T22:19:15.165Z,67.03
2022-10-23T22:21:42.484Z,68.00
2022-10-23T22:24:11.535Z,62.45
2022-10-23T22:26:40.663Z,62.97
2022-10-23T22:29:09.121Z,61.96
2022-10-23T22:31:39.648Z,62.91
2022-10-23T22:34:18.567Z,64.43
2022-10-23T22:36:53.223Z,63.34
2022-10-23T22:39:19.837Z,65.32
2022-10-23T22:41:46.914Z,68.55
2022-10-23T22:44:13.818Z,70.09
2022-10-23T22:46:40.807Z,70.50
2022-10-23T22:49:07.419Z,68.80
2022-10-23T22:51:38.727Z,67.16
2022-10-23T22:54:06.141Z,67.26
2022-10-23T22:56:34.698Z,65.21
2022-10-23T22:59:02.105Z,65.10
2022-10-23T23:01:29.163Z,65.06
2022-10-23T23:03:58.183Z,63.64
2022-10-23T23:06:28.163Z,64.49
2022-10-23T23:08:55.817Z,63.25
2022-10-23T23:11:22.913Z,63.77
2022-10-23T23:13:49.922Z,63.56
2022-10-23T23:16:16.646Z,63.13
2022-10-23T23:18:44.514Z,64.71
2022-10-23T23:21:11.438Z,65.42
2022-10-23T23:23:38.313Z,66.23
2022-10-23T23:26:05.027Z,65.97
2022-10-23T23:28:36.276Z,65.90
2022-10-23T23:31:03.873Z,66.58
2022-10-23T23:33:32.871Z,67.65
2022-10-23T23:36:01.121Z,67.37
2022-10-23T23:38:28.278Z,67.05
2022-10-23T23:40:56.783Z,67.35
2022-10-23T23:43:24.305Z,67.15
2022-10-23T23:45:51.316Z,68.13
2022-10-23T23:48:18.272Z,66.89
2022-10-23T23:50:47.405Z,66.78
2022-10-23T23:53:14.501Z,66.69
2022-10-23T23:58:10.866Z,64.08
